Time;durP1;ratioP1;P1;durP2;ratioP2;P2;SDS_P1;SDS_P2;PMS_P1;PMS_P2;Temp;Humidity;BMP_temperature;BMP_pressure;BME280_temperature;BME280_humidity;BME280_pressure;Samples;Min_cycle;Max_cycle;Signal;HPM_P1;HPM_P2
2022/10/20 00:01:48;;;;;;;17.27;15.40;;;;;;;9.67;100.00;100517.63;5066373;28;20216;-86
2022/10/20 00:04:13;;;;;;;18.63;14.00;;;;;;;9.60;100.00;100501.69;5049603;28;20266;-86
2022/10/20 00:06:39;;;;;;;19.67;13.67;;;;;;;9.59;100.00;100504.28;5053620;28;20174;-87
2022/10/20 00:09:04;;;;;;;18.40;13.23;;;;;;;9.58;100.00;100498.34;5054211;28;20181;-86
2022/10/20 00:11:30;;;;;;;16.00;11.33;;;;;;;9.53;100.00;100503.66;5064883;28;20224;-85
2022/10/20 00:13:57;;;;;;;15.13;10.03;;;;;;;9.53;100.00;100502.84;5056042;28;20652;-85
2022/10/20 00:16:24;;;;;;;13.60;10.57;;;;;;;9.51;100.00;100505.50;5054537;28;20200;-83
2022/10/20 00:18:50;;;;;;;13.90;9.63;;;;;;;9.58;100.00;100508.59;5053286;28;20668;-85
2022/10/20 00:21:20;;;;;;;10.87;9.20;;;;;;;9.50;100.00;100505.53;5063943;28;20311;-85
2022/10/20 00:23:46;;;;;;;11.03;8.60;;;;;;;9.51;100.00;100494.34;5050545;28;20475;-87
2022/10/20 00:26:23;;;;;;;13.93;8.30;;;;;;;9.46;100.00;100480.91;5053397;28;20235;-86
2022/10/20 00:28:50;;;;;;;13.10;8.80;;;;;;;9.46;100.00;100476.59;5053919;28;20185;-86
2022/10/20 00:31:17;;;;;;;13.03;8.23;;;;;;;9.43;100.00;100478.47;5057385;28;20232;-86
2022/10/20 00:33:42;;;;;;;10.23;7.37;;;;;;;9.45;100.00;100474.09;5055466;28;20177;-83
2022/10/20 00:36:12;;;;;;;12.13;8.20;;;;;;;9.41;100.00;100468.25;5053413;28;20701;-85
2022/10/20 00:38:37;;;;;;;12.93;7.47;;;;;;;9.42;100.00;100472.50;5043423;28;20206;-86
2022/10/20 00:41:03;;;;;;;7.93;7.10;;;;;;;9.38;100.00;100470.97;5055122;28;20268;-83
2022/10/20 00:43:43;;;;;;;13.60;8.07;;;;;;;9.32;100.00;100463.53;5052016;28;20232;-85
2022/10/20 00:46:11;;;;;;;10.10;7.53;;;;;;;9.34;100.00;100462.56;5054487;28;20174;-85
2022/10/20 00:48:37;;;;;;;10.90;7.33;;;;;;;9.27;100.00;100456.03;5069300;28;20193;-85
2022/10/20 00:51:02;;;;;;;11.10;7.33;;;;;;;9.25;100.00;100452.69;5057847;28;20278;-85
2022/10/20 00:53:28;;;;;;;10.67;7.30;;;;;;;9.20;100.00;100454.63;5039984;28;20189;-83
2022/10/20 00:55:55;;;;;;;7.37;6.63;;;;;;;9.24;100.00;100448.47;5033267;28;20250;-85
2022/10/20 00:58:21;;;;;;;10.10;7.23;;;;;;;9.24;100.00;100450.19;5047521;28;20222;-88
2022/10/20 01:00:50;;;;;;;9.03;7.03;;;;;;;9.29;100.00;100443.09;5049575;28;20343;-87
2022/10/20 01:03:20;;;;;;;7.43;6.63;;;;;;;9.17;100.00;100441.94;5063029;28;20334;-87
2022/10/20 01:05:45;;;;;;;11.83;6.93;;;;;;;9.16;100.00;100433.38;5052059;28;20176;-87
2022/10/20 01:08:11;;;;;;;9.07;6.93;;;;;;;9.11;100.00;100431.94;5052468;28;20185;-85
2022/10/20 01:11:00;;;;;;;8.63;7.10;;;;;;;9.09;100.00;100423.44;5051533;28;20216;-85
2022/10/20 01:13:56;;;;;;;10.27;7.07;;;;;;;9.07;100.00;100426.09;5051045;28;20182;-85
2022/10/20 01:16:38;;;;;;;8.97;5.90;;;;;;;9.06;100.00;100418.47;5035171;28;20173;-84
2022/10/20 01:19:22;;;;;;;7.10;6.40;;;;;;;9.12;100.00;100426.72;5045598;28;20270;-82
2022/10/20 01:22:15;;;;;;;7.70;6.10;;;;;;;9.01;100.00;100429.75;5058413;28;20227;-85
2022/10/20 01:24:53;;;;;;;10.57;6.13;;;;;;;9.07;100.00;100431.22;5053080;28;20184;-85
2022/10/20 01:27:28;;;;;;;11.03;6.30;;;;;;;8.99;100.00;100431.56;5051961;28;20188;-86
2022/10/20 01:30:07;;;;;;;12.47;6.73;;;;;;;8.95;100.00;100426.63;5052621;28;20180;-86
2022/10/20 01:32:35;;;;;;;11.60;7.00;;;;;;;8.95;100.00;100409.47;5041191;28;20217;-85
2022/10/20 01:35:08;;;;;;;8.33;7.03;;;;;;;8.94;100.00;100406.97;5051971;28;20180;-87
2022/10/20 01:37:41;;;;;;;8.87;6.30;;;;;;;8.97;100.00;100417.13;5052188;28;20193;-86
2022/10/20 01:40:24;;;;;;;7.73;6.97;;;;;;;8.90;100.00;100416.53;5043430;28;20185;-87
2022/10/20 01:42:51;;;;;;;9.97;6.63;;;;;;;8.90;100.00;100413.16;5064724;28;20210;-82
2022/10/20 01:45:20;;;;;;;9.37;6.97;;;;;;;8.91;100.00;100431.03;5078329;28;20174;-83
2022/10/20 01:47:47;;;;;;;14.57;6.30;;;;;;;8.94;100.00;100423.19;5044935;28;20185;-82
2022/10/20 01:50:15;;;;;;;7.20;6.50;;;;;;;8.91;100.00;100422.53;5044054;28;20217;-85
2022/10/20 01:52:40;;;;;;;7.53;6.40;;;;;;;8.88;100.00;100410.63;5070411;28;20174;-85
2022/10/20 01:55:12;;;;;;;7.60;6.13;;;;;;;8.85;100.00;100393.63;5049183;28;20979;-83
2022/10/20 01:57:56;;;;;;;8.17;6.67;;;;;;;8.82;100.00;100387.81;5052013;28;20185;-87
2022/10/20 02:00:22;;;;;;;8.37;7.10;;;;;;;8.82;100.00;100385.25;5047515;28;20203;-86
2022/10/20 02:03:06;;;;;;;11.40;7.10;;;;;;;8.77;100.00;100389.72;5069103;28;20196;-87
2022/10/20 02:06:03;;;;;;;7.80;6.07;;;;;;;8.76;100.00;100388.91;5050888;28;20185;-87
2022/10/20 02:08:42;;;;;;;11.60;5.93;;;;;;;8.81;100.00;100384.41;5051641;28;20315;-84
2022/10/20 02:11:16;;;;;;;8.37;6.47;;;;;;;8.78;100.00;100371.75;5043447;28;20259;-84
2022/10/20 02:13:42;;;;;;;10.37;5.90;;;;;;;8.71;100.00;100366.00;5046183;28;20519;-86
2022/10/20 02:16:15;;;;;;;9.23;6.33;;;;;;;8.66;100.00;100374.81;5051951;28;20181;-82
2022/10/20 02:18:42;;;;;;;8.07;6.10;;;;;;;8.66;100.00;100357.69;5051427;28;20173;-86
2022/10/20 02:21:09;;;;;;;6.87;6.27;;;;;;;8.63;100.00;100352.69;5052517;28;20227;-83
2022/10/20 02:23:38;;;;;;;9.67;7.27;;;;;;;8.69;100.00;100339.59;5051048;28;20185;-85
2022/10/20 02:26:06;;;;;;;12.40;6.90;;;;;;;8.63;100.00;100329.59;5051138;28;20280;-83
2022/10/20 02:28:34;;;;;;;8.40;7.23;;;;;;;8.61;100.00;100331.41;5051536;28;20220;-86
2022/10/20 02:31:01;;;;;;;11.33;6.53;;;;;;;8.60;100.00;100339.19;5053505;28;20584;-86
2022/10/20 02:33:27;;;;;;;10.33;6.97;;;;;;;8.64;100.00;100345.84;5057961;28;20263;-85
2022/10/20 02:35:57;;;;;;;12.53;6.50;;;;;;;8.64;100.00;100351.78;5069898;28;20189;-83
2022/10/20 02:38:23;;;;;;;9.50;6.73;;;;;;;8.66;100.00;100351.75;5051308;28;20189;-83
2022/10/20 02:40:48;;;;;;;8.30;6.50;;;;;;;8.69;100.00;100349.84;5049879;28;21186;-84
2022/10/20 02:43:13;;;;;;;7.70;6.90;;;;;;;8.69;100.00;100349.84;5057029;28;20182;-84
2022/10/20 02:45:39;;;;;;;9.37;6.87;;;;;;;8.70;100.00;100359.22;5051663;28;20288;-84
2022/10/20 02:48:04;;;;;;;11.07;6.83;;;;;;;8.65;100.00;100353.44;5050993;28;20182;-84
2022/10/20 02:50:29;;;;;;;7.40;6.70;;;;;;;8.73;100.00;100358.25;5066778;28;20243;-84
2022/10/20 02:52:55;;;;;;;9.23;6.27;;;;;;;8.71;100.00;100360.88;5053593;28;20186;-85
2022/10/20 02:55:20;;;;;;;9.60;6.40;;;;;;;8.74;100.00;100356.53;5051699;28;20616;-83
2022/10/20 02:57:45;;;;;;;11.27;6.17;;;;;;;8.70;100.00;100359.22;5051055;28;20185;-83
2022/10/20 03:00:11;;;;;;;9.13;6.87;;;;;;;8.67;100.00;100349.09;5031651;28;20682;-82
2022/10/20 03:02:36;;;;;;;11.20;5.97;;;;;;;8.66;100.00;100351.75;5049987;28;20188;-82
2022/10/20 03:05:02;;;;;;;8.27;6.57;;;;;;;8.57;100.00;100337.59;5051553;28;20638;-84
2022/10/20 03:07:27;;;;;;;6.43;5.83;;;;;;;8.55;100.00;100334.25;5047910;28;20545;-85
2022/10/20 03:09:53;;;;;;;6.63;6.03;;;;;;;8.54;100.00;100325.69;5046985;28;20640;-83
2022/10/20 03:12:18;;;;;;;8.93;7.07;;;;;;;8.51;100.00;100336.09;5050183;28;20252;-83
2022/10/20 03:14:44;;;;;;;7.30;6.43;;;;;;;8.50;100.00;100349.00;5044622;28;20189;-84
2022/10/20 03:17:09;;;;;;;10.33;6.53;;;;;;;8.51;100.00;100356.59;5067420;28;20694;-85
2022/10/20 03:19:35;;;;;;;7.77;6.97;;;;;;;8.59;100.00;100356.28;5042892;28;20177;-85
2022/10/20 03:22:00;;;;;;;9.97;6.77;;;;;;;8.53;100.00;100349.69;5062049;28;20656;-85
2022/10/20 03:24:25;;;;;;;7.83;6.07;;;;;;;8.49;100.00;100347.31;5040792;28;20182;-87
2022/10/20 03:26:51;;;;;;;15.27;6.77;;;;;;;8.50;100.00;100337.00;5050977;28;20226;-85
2022/10/20 03:29:16;;;;;;;8.43;6.77;;;;;;;8.49;100.00;100348.13;5068971;28;20208;-81
2022/10/20 03:31:41;;;;;;;8.77;7.00;;;;;;;8.44;100.00;100346.66;5032457;28;20569;-81
2022/10/20 03:34:07;;;;;;;9.37;7.17;;;;;;;8.45;100.00;100335.50;5052621;28;20251;-82
2022/10/20 03:36:32;;;;;;;8.80;6.57;;;;;;;8.46;100.00;100319.19;5076126;28;20483;-85
2022/10/20 03:38:57;;;;;;;14.47;6.70;;;;;;;8.42;100.00;100309.97;5044777;28;20636;-85
2022/10/20 03:41:23;;;;;;;12.50;7.07;;;;;;;8.33;100.00;100314.59;5061396;28;20326;-85
2022/10/20 03:43:48;;;;;;;10.30;7.07;;;;;;;8.37;100.00;100325.53;5049911;28;20204;-81
2022/10/20 03:46:13;;;;;;;7.97;7.17;;;;;;;8.43;100.00;100321.91;5040286;28;20174;-82
2022/10/20 03:48:38;;;;;;;8.33;7.30;;;;;;;8.40;100.00;100312.63;5054388;28;20212;-83
2022/10/20 03:51:04;;;;;;;9.60;7.63;;;;;;;8.37;100.00;100307.59;5060811;28;20238;-83
2022/10/20 03:53:30;;;;;;;7.43;6.73;;;;;;;8.37;100.00;100302.47;5060755;28;20173;-83
2022/10/20 03:55:55;;;;;;;8.83;7.40;;;;;;;8.35;100.00;100289.72;5056407;28;20199;-84
2022/10/20 03:58:21;;;;;;;7.70;6.87;;;;;;;8.38;100.00;100293.91;5055597;28;20181;-84
2022/10/20 04:00:47;;;;;;;7.83;6.83;;;;;;;8.36;100.00;100298.25;5056066;28;20219;-83
2022/10/20 04:03:12;;;;;;;12.50;7.23;;;;;;;8.29;100.00;100295.13;5060532;28;20246;-82
2022/10/20 04:05:38;;;;;;;9.20;7.57;;;;;;;8.39;100.00;100293.00;5052725;28;20261;-82
2022/10/20 04:08:04;;;;;;;9.80;7.70;;;;;;;8.45;100.00;100302.19;5053356;28;20235;-81
2022/10/20 04:10:29;;;;;;;13.80;6.70;;;;;;;8.37;100.00;100289.66;5072475;28;20378;-82
2022/10/20 04:12:59;;;;;;;9.70;7.43;;;;;;;8.31;100.00;100290.78;5051348;28;20174;-84
2022/10/20 04:15:25;;;;;;;9.83;7.50;;;;;;;8.30;100.00;100303.63;5052719;28;20189;-84
2022/10/20 04:17:50;;;;;;;14.30;8.77;;;;;;;8.34;100.00;100306.00;5053779;28;20182;-85
2022/10/20 04:20:15;;;;;;;8.80;7.80;;;;;;;8.28;100.00;100305.44;5046570;28;20649;-86
2022/10/20 04:22:40;;;;;;;11.37;8.13;;;;;;;8.29;100.00;100307.94;5067504;28;20230;-84
2022/10/20 04:25:06;;;;;;;8.77;7.30;;;;;;;8.36;100.00;100301.66;5054067;28;20178;-84
2022/10/20 04:27:32;;;;;;;12.57;8.20;;;;;;;8.29;100.00;100294.28;5054495;28;20608;-84
2022/10/20 04:29:57;;;;;;;8.60;7.33;;;;;;;8.27;100.00;100285.81;5053706;28;20178;-84
2022/10/20 04:32:22;;;;;;;9.27;8.07;;;;;;;8.23;100.00;100290.25;5060913;28;20325;-85
2022/10/20 04:34:48;;;;;;;19.23;7.37;;;;;;;8.20;100.00;100288.66;5053337;28;20212;-84
2022/10/20 04:37:21;;;;;;;10.27;8.13;;;;;;;8.24;100.00;100279.91;5053762;28;20228;-82
2022/10/20 04:39:46;;;;;;;12.60;7.77;;;;;;;8.21;100.00;100276.66;5037688;28;20283;-84
2022/10/20 04:42:12;;;;;;;11.97;8.10;;;;;;;8.19;100.00;100271.59;5063865;28;20607;-83
2022/10/20 04:44:37;;;;;;;8.93;7.73;;;;;;;8.27;100.00;100252.50;5050524;28;20755;-84
2022/10/20 04:47:02;;;;;;;7.93;7.13;;;;;;;8.19;100.00;100245.16;5052790;28;20193;-83
2022/10/20 04:49:27;;;;;;;9.23;7.60;;;;;;;8.20;100.00;100247.66;5051431;28;20659;-84
2022/10/20 04:51:53;;;;;;;11.00;7.50;;;;;;;8.27;100.00;100237.94;5072851;28;20321;-82
2022/10/20 04:54:18;;;;;;;10.80;8.07;;;;;;;8.29;100.00;100232.78;5055422;28;20185;-80
2022/10/20 04:56:43;;;;;;;10.40;7.97;;;;;;;8.29;100.00;100231.03;5051987;28;20279;-79
2022/10/20 04:59:09;;;;;;;10.00;7.60;;;;;;;8.31;100.00;100236.94;5051349;28;20193;-82
2022/10/20 05:01:34;;;;;;;9.70;7.37;;;;;;;8.29;100.00;100232.78;5064303;28;20363;-84
2022/10/20 05:03:59;;;;;;;13.03;7.53;;;;;;;8.38;100.00;100228.09;5056699;28;20174;-83
2022/10/20 05:06:28;;;;;;;10.50;8.07;;;;;;;8.34;100.00;100230.84;5052077;28;20185;-82
2022/10/20 05:08:56;;;;;;;11.43;8.27;;;;;;;8.39;100.00;100234.88;5053001;28;20204;-82
2022/10/20 05:11:23;;;;;;;12.57;8.47;;;;;;;8.46;100.00;100229.47;5055274;28;20232;-83
2022/10/20 05:13:49;;;;;;;10.00;8.03;;;;;;;8.46;100.00;100219.22;5064103;28;20655;-83
2022/10/20 05:16:18;;;;;;;8.83;7.40;;;;;;;8.49;100.00;100219.13;5054782;28;20177;-75
2022/10/20 05:18:44;;;;;;;13.50;7.47;;;;;;;8.39;100.00;100216.91;5054576;28;20186;-81
2022/10/20 05:21:15;;;;;;;8.53;7.60;;;;;;;8.37;100.00;100208.50;5063721;28;20235;-83
2022/10/20 05:23:41;;;;;;;11.93;8.00;;;;;;;8.40;100.00;100203.22;5058716;28;20530;-83
2022/10/20 05:26:10;;;;;;;9.83;7.97;;;;;;;8.40;100.00;100195.53;5052504;28;20181;-85
2022/10/20 05:28:36;;;;;;;12.87;8.33;;;;;;;8.29;100.00;100190.03;5073206;28;20186;-85
2022/10/20 05:31:04;;;;;;;9.33;8.37;;;;;;;8.24;100.00;100194.53;5052291;28;20331;-86
2022/10/20 05:33:29;;;;;;;10.57;8.27;;;;;;;8.17;100.00;100193.94;5058137;28;20193;-84
2022/10/20 05:35:54;;;;;;;18.40;8.80;;;;;;;8.25;100.00;100198.75;5052523;28;20207;-83
2022/10/20 05:38:21;;;;;;;14.67;8.80;;;;;;;8.23;100.00;100201.38;5076173;28;20629;-84
2022/10/20 05:40:46;;;;;;;10.53;8.30;;;;;;;8.30;100.00;100194.28;5047584;28;20776;-85
2022/10/20 05:43:11;;;;;;;10.20;8.70;;;;;;;8.27;100.00;100191.81;5061667;28;20292;-84
2022/10/20 05:45:37;;;;;;;9.33;8.27;;;;;;;8.26;100.00;100192.75;5052339;28;20592;-85
2022/10/20 05:48:02;;;;;;;9.80;8.07;;;;;;;8.20;100.00;100198.13;5065833;28;20174;-72
2022/10/20 05:50:27;;;;;;;12.10;8.30;;;;;;;8.25;100.00;100201.34;5056670;28;21153;-83
2022/10/20 05:52:52;;;;;;;11.63;9.70;;;;;;;8.21;100.00;100194.66;5053932;28;20263;-83
2022/10/20 05:55:18;;;;;;;9.90;8.67;;;;;;;8.24;100.00;100190.22;5076890;28;20268;-84
2022/10/20 05:57:43;;;;;;;10.43;8.73;;;;;;;8.21;100.00;100189.53;5044940;28;20264;-81
2022/10/20 06:00:10;;;;;;;10.87;8.63;;;;;;;8.19;100.00;100196.47;5040554;28;20268;-81
2022/10/20 06:02:35;;;;;;;10.03;8.93;;;;;;;8.26;100.00;100187.63;5061815;28;20197;-82
2022/10/20 06:05:00;;;;;;;12.70;9.80;;;;;;;8.36;100.00;100201.69;5049198;28;20586;-82
2022/10/20 06:07:26;;;;;;;12.57;9.63;;;;;;;8.33;100.00;100204.38;5051650;28;20649;-83
2022/10/20 06:09:51;;;;;;;14.80;8.93;;;;;;;8.28;100.00;100202.91;5051426;28;20198;-82
2022/10/20 06:12:16;;;;;;;12.17;9.93;;;;;;;8.26;100.00;100192.75;5052669;28;20228;-86
2022/10/20 06:14:41;;;;;;;12.03;9.63;;;;;;;8.28;100.00;100188.38;5043707;28;20181;-82
2022/10/20 06:17:08;;;;;;;14.23;9.63;;;;;;;8.26;100.00;100191.91;5051465;28;20185;-84
2022/10/20 06:19:33;;;;;;;11.47;9.90;;;;;;;8.30;100.00;100185.72;5050872;28;20723;-83
2022/10/20 06:21:58;;;;;;;11.87;9.03;;;;;;;8.30;100.00;100207.09;5069041;28;20286;-83
2022/10/20 06:24:24;;;;;;;10.77;9.73;;;;;;;8.37;100.00;100210.19;5049077;28;20181;-84
2022/10/20 06:26:50;;;;;;;10.70;9.53;;;;;;;8.48;100.00;100205.47;5050623;28;20182;-84
2022/10/20 06:29:17;;;;;;;14.53;10.37;;;;;;;8.43;100.00;100212.50;5045084;28;20650;-84
2022/10/20 06:31:47;;;;;;;13.50;10.47;;;;;;;8.42;100.00;100223.63;5056941;28;20617;-86
2022/10/20 06:34:15;;;;;;;10.63;9.63;;;;;;;8.52;100.00;100242.06;5037986;28;20267;-87
2022/10/20 06:36:42;;;;;;;14.63;9.10;;;;;;;8.63;100.00;100255.22;5041031;28;20185;-85
2022/10/20 06:39:10;;;;;;;14.07;9.27;;;;;;;8.71;100.00;100254.91;5045026;28;20251;-83
2022/10/20 06:41:36;;;;;;;11.50;9.47;;;;;;;8.72;100.00;100246.31;5062066;28;20299;-86
2022/10/20 06:44:01;;;;;;;12.10;8.83;;;;;;;8.81;100.00;100239.94;5051976;28;20192;-85
2022/10/20 06:46:29;;;;;;;14.93;9.63;;;;;;;8.91;100.00;100228.38;5045416;28;20208;-85
2022/10/20 06:48:54;;;;;;;12.57;9.93;;;;;;;8.93;100.00;100230.84;5036486;28;20652;-67
2022/10/20 06:51:23;;;;;;;9.90;8.90;;;;;;;9.49;100.00;100244.53;5059675;28;20285;-66
2022/10/20 06:53:49;;;;;;;11.80;9.87;;;;;;;9.68;100.00;100245.28;5053430;28;20236;-64
2022/10/20 06:56:23;;;;;;;11.20;8.70;;;;;;;9.73;100.00;100246.81;5047078;28;20648;-66
2022/10/20 06:58:51;;;;;;;12.20;9.40;;;;;;;10.06;100.00;100248.63;5045378;28;20236;-67
2022/10/20 07:01:19;;;;;;;13.23;8.83;;;;;;;10.20;100.00;100242.81;5032604;28;20294;-64
2022/10/20 07:03:46;;;;;;;17.07;9.33;;;;;;;10.61;100.00;100255.28;5056793;28;20185;-64
2022/10/20 07:06:21;;;;;;;10.37;9.00;;;;;;;10.53;100.00;100257.41;5037161;28;20227;-64
2022/10/20 07:08:47;;;;;;;10.20;9.20;;;;;;;10.67;100.00;100262.69;5050429;28;20181;-76
2022/10/20 07:11:15;;;;;;;12.60;8.53;;;;;;;10.53;100.00;100260.00;5055211;28;20346;-79
2022/10/20 07:13:41;;;;;;;15.87;10.00;;;;;;;10.23;100.00;100238.31;5056666;28;20182;-77
2022/10/20 07:16:09;;;;;;;13.80;9.33;;;;;;;9.97;100.00;100245.63;5055921;28;20215;-76
2022/10/20 07:18:36;;;;;;;10.97;9.67;;;;;;;9.87;100.00;100234.09;5054413;28;20196;-77
2022/10/20 07:21:03;;;;;;;15.83;10.53;;;;;;;9.82;100.00;100225.81;5053297;28;20273;-76
2022/10/20 07:23:30;;;;;;;12.50;10.57;;;;;;;9.65;100.00;100234.31;5050831;28;20198;-74
2022/10/20 07:26:10;;;;;;;12.97;10.87;;;;;;;9.65;100.00;100239.47;5053092;28;20174;-75
2022/10/20 07:28:36;;;;;;;13.17;10.53;;;;;;;9.65;100.00;100229.19;5054898;28;20189;-74
2022/10/20 07:31:07;;;;;;;19.43;10.17;;;;;;;9.62;100.00;100226.78;5031646;28;20285;-74
2022/10/20 07:33:33;;;;;;;15.73;11.07;;;;;;;9.68;100.00;100218.78;5060874;28;20573;-76
2022/10/20 07:35:58;;;;;;;13.47;11.67;;;;;;;9.70;100.00;100199.00;5041782;28;20182;-75
2022/10/20 07:38:23;;;;;;;16.67;10.73;;;;;;;9.89;100.00;100198.09;5046541;28;20189;-76
2022/10/20 07:40:49;;;;;;;15.90;11.63;;;;;;;9.87;100.00;100208.41;5053081;28;20366;-71
2022/10/20 07:43:14;;;;;;;13.23;11.63;;;;;;;10.06;100.00;100218.63;5063575;28;20178;-73
2022/10/20 07:45:39;;;;;;;12.10;10.73;;;;;;;10.04;100.00;100225.56;5054141;28;20204;-74
2022/10/20 07:48:06;;;;;;;12.17;10.97;;;;;;;9.95;100.00;100233.75;5053643;28;20789;-74
2022/10/20 07:50:32;;;;;;;13.83;10.63;;;;;;;9.84;100.00;100237.66;5052083;28;20242;-74
2022/10/20 07:52:57;;;;;;;16.70;11.87;;;;;;;9.87;100.00;100230.72;5073906;28;20180;-74
2022/10/20 07:55:22;;;;;;;18.53;11.77;;;;;;;10.11;100.00;100231.22;5051413;28;20193;-73
2022/10/20 07:57:48;;;;;;;13.37;11.60;;;;;;;10.45;100.00;100221.81;5044313;28;20243;-75
2022/10/20 08:00:13;;;;;;;15.20;12.33;;;;;;;10.33;100.00;100215.53;5039042;28;20557;-75
2022/10/20 08:02:41;;;;;;;14.70;10.63;;;;;;;10.34;100.00;100215.47;5083871;28;20197;-76
2022/10/20 08:05:07;;;;;;;15.20;11.97;;;;;;;10.49;100.00;100231.03;5054752;28;20581;-76
2022/10/20 08:07:33;;;;;;;13.70;11.00;;;;;;;10.63;100.00;100223.44;5042400;28;20209;-76
2022/10/20 08:09:59;;;;;;;15.17;11.50;;;;;;;10.58;100.00;100217.69;5052637;28;20652;-76
2022/10/20 08:12:24;;;;;;;14.83;12.17;;;;;;;10.60;100.00;100215.84;5076413;28;20375;-77
2022/10/20 08:14:50;;;;;;;18.20;12.83;;;;;;;10.56;100.00;100219.50;5054726;28;20189;-73
2022/10/20 08:17:16;;;;;;;17.60;11.73;;;;;;;10.41;100.00;100213.44;5033087;28;20193;-76
2022/10/20 08:19:42;;;;;;;15.20;12.27;;;;;;;10.49;100.00;100210.44;5049392;28;20177;-76
2022/10/20 08:22:07;;;;;;;14.70;12.53;;;;;;;10.37;100.00;100204.22;5075715;28;20232;-76
2022/10/20 08:24:32;;;;;;;19.70;13.37;;;;;;;10.37;100.00;100211.94;5047377;28;20173;-75
2022/10/20 08:26:59;;;;;;;15.03;12.57;;;;;;;10.60;100.00;100220.19;5048774;28;20190;-77
2022/10/20 08:29:24;;;;;;;16.27;13.30;;;;;;;10.72;100.00;100211.00;5045773;28;20257;-74
2022/10/20 08:31:49;;;;;;;14.87;12.50;;;;;;;10.86;100.00;100208.50;5063094;28;20732;-73
2022/10/20 08:34:14;;;;;;;15.07;12.43;;;;;;;10.76;100.00;100210.72;5057628;28;20260;-75
2022/10/20 08:36:40;;;;;;;16.80;12.50;;;;;;;10.83;100.00;100195.81;5052860;28;20247;-75
2022/10/20 08:39:05;;;;;;;13.30;11.87;;;;;;;11.05;100.00;100182.59;5054483;28;20211;-77
2022/10/20 08:41:33;;;;;;;13.90;12.40;;;;;;;11.33;100.00;100199.06;5054462;28;20220;-77
2022/10/20 08:44:01;;;;;;;13.80;11.87;;;;;;;11.46;100.00;100194.91;5052349;28;20178;-77
2022/10/20 08:46:31;;;;;;;13.77;12.33;;;;;;;11.68;100.00;100173.03;5052431;28;20725;-76
2022/10/20 08:48:57;;;;;;;16.00;11.47;;;;;;;12.47;100.00;100172.75;5042646;28;20204;-75
2022/10/20 08:51:26;;;;;;;16.53;11.47;;;;;;;13.37;100.00;100192.06;5059830;28;20285;-76
2022/10/20 08:53:57;;;;;;;14.33;11.80;;;;;;;12.90;100.00;100193.31;4870370;28;2755590;-76
2022/10/20 08:56:26;;;;;;;14.87;11.60;;;;;;;12.21;100.00;100190.63;5046715;28;20201;-79
2022/10/20 08:58:51;;;;;;;13.77;11.33;;;;;;;12.13;100.00;100196.25;5050387;28;20181;-78
2022/10/20 09:01:25;;;;;;;16.93;12.07;;;;;;;12.10;100.00;100197.25;5052173;28;20268;-78
2022/10/20 09:03:57;;;;;;;14.50;12.23;;;;;;;12.20;100.00;100199.28;5045251;28;20182;-77
2022/10/20 09:06:23;;;;;;;14.43;11.63;;;;;;;12.21;100.00;100186.28;5045247;28;20195;-75
2022/10/20 09:08:48;;;;;;;14.67;12.00;;;;;;;12.82;100.00;100196.38;5047109;28;20579;-78
2022/10/20 09:11:21;;;;;;;16.37;11.90;;;;;;;12.61;100.00;100184.81;5058821;28;20304;-75
2022/10/20 09:13:47;;;;;;;14.03;12.50;;;;;;;12.18;100.00;100177.91;5049834;28;20189;-76
2022/10/20 09:16:22;;;;;;;16.17;12.13;;;;;;;12.79;100.00;100175.91;5042192;28;20185;-73
2022/10/20 09:18:54;;;;;;;13.83;12.40;;;;;;;13.49;100.00;100181.84;5051545;28;20183;-77
2022/10/20 09:21:20;;;;;;;14.50;11.03;;;;;;;13.02;100.00;100191.72;5063944;28;20252;-74
2022/10/20 09:23:51;;;;;;;14.33;11.23;;;;;;;12.99;100.00;100195.31;5063601;28;20177;-73
2022/10/20 09:26:32;;;;;;;12.60;11.17;;;;;;;12.53;100.00;100199.00;5041155;28;20193;-75
2022/10/20 09:29:08;;;;;;;14.23;12.70;;;;;;;12.79;100.00;100190.56;5030090;28;124568;-77
2022/10/20 09:31:43;;;;;;;14.60;13.10;;;;;;;12.70;100.00;100189.38;5066655;28;20315;-79
2022/10/20 09:34:26;;;;;;;16.67;13.47;;;;;;;12.71;100.00;100186.72;5057555;28;20192;-77
2022/10/20 09:37:07;;;;;;;16.10;11.93;;;;;;;13.05;100.00;100191.53;5051738;28;20571;-78
2022/10/20 09:39:49;;;;;;;15.47;13.70;;;;;;;13.11;100.00;100190.28;5050077;28;20181;-75
2022/10/20 09:42:24;;;;;;;14.20;12.60;;;;;;;12.59;100.00;100196.03;5059102;28;20220;-76
2022/10/20 09:44:57;;;;;;;14.37;11.83;;;;;;;12.35;100.00;100198.34;5038205;28;20633;-82
2022/10/20 09:47:23;;;;;;;18.03;11.67;;;;;;;12.71;100.00;100191.03;5052900;28;20188;-77
2022/10/20 09:50:00;;;;;;;13.53;11.73;;;;;;;12.86;100.00;100184.09;5051603;28;20204;-75
2022/10/20 09:52:33;;;;;;;14.10;12.70;;;;;;;12.76;100.00;100176.09;5074656;28;20236;-77
2022/10/20 09:55:06;;;;;;;14.67;13.27;;;;;;;12.73;100.00;100173.72;5052691;28;20192;-81
2022/10/20 09:57:32;;;;;;;18.67;13.23;;;;;;;12.64;100.00;100182.88;5041889;28;20633;-77
2022/10/20 09:59:58;;;;;;;16.23;12.07;;;;;;;12.72;100.00;100179.81;5051273;28;20189;-62
2022/10/20 10:02:30;;;;;;;13.63;11.63;;;;;;;13.11;100.00;100191.13;5049564;28;20221;-66
2022/10/20 10:05:17;;;;;;;13.63;12.23;;;;;;;13.09;100.00;100182.66;5038662;28;20271;-63
2022/10/20 10:07:43;;;;;;;14.80;12.80;;;;;;;13.01;100.00;100183.16;5050338;28;20651;-77
2022/10/20 10:10:17;;;;;;;17.93;12.63;;;;;;;12.75;100.00;100183.03;5044077;28;20173;-75
2022/10/20 10:12:50;;;;;;;15.47;13.50;;;;;;;12.59;100.00;100180.56;5070104;28;20201;-77
2022/10/20 10:15:21;;;;;;;19.73;13.27;;;;;;;12.43;100.00;100174.69;5047537;28;20177;-76
2022/10/20 10:17:48;;;;;;;14.27;12.87;;;;;;;12.56;100.00;100177.34;5051492;28;20195;-82
2022/10/20 10:20:15;;;;;;;14.77;13.27;;;;;;;12.51;100.00;100172.47;5043817;28;20196;-79
2022/10/20 10:22:41;;;;;;;15.77;13.33;;;;;;;12.52;100.00;100160.41;5075008;28;20189;-79
2022/10/20 10:25:15;;;;;;;23.97;13.40;;;;;;;12.34;100.00;100155.44;5033608;28;20189;-80
2022/10/20 10:27:57;;;;;;;14.63;13.13;;;;;;;12.49;100.00;100164.00;5040610;28;20636;-78
2022/10/20 10:30:32;;;;;;;17.77;13.90;;;;;;;12.93;100.00;100156.97;5042130;28;21045;-60
2022/10/20 10:32:57;;;;;;;16.67;13.17;;;;;;;13.22;100.00;100155.13;5051255;28;20208;-59
2022/10/20 10:35:39;;;;;;;16.57;13.00;;;;;;;13.14;100.00;100152.19;5049266;28;20185;-59
2022/10/20 10:38:09;;;;;;;17.23;12.53;;;;;;;12.96;100.00;100151.63;5048422;28;20189;-77
2022/10/20 10:40:38;;;;;;;17.37;13.90;;;;;;;13.24;100.00;100130.00;5047777;28;20322;-75
2022/10/20 10:43:09;;;;;;;17.17;13.50;;;;;;;13.25;100.00;100128.25;5066555;28;20576;-76
2022/10/20 10:46:05;;;;;;;17.07;12.43;;;;;;;13.44;100.00;100130.47;5051021;28;20212;-76
2022/10/20 10:49:03;;;;;;;16.93;12.53;;;;;;;13.34;100.00;100129.41;5054131;28;20217;-77
2022/10/20 10:51:54;;;;;;;14.77;12.63;;;;;;;13.59;100.00;100107.94;5069062;28;20212;-79
2022/10/20 10:54:40;;;;;;;13.73;12.27;;;;;;;13.78;100.00;100106.72;5041370;28;20327;-74
2022/10/20 10:57:28;;;;;;;16.63;12.50;;;;;;;13.87;100.00;100108.69;5042327;28;20196;-76
2022/10/20 10:59:56;;;;;;;13.50;12.10;;;;;;;13.97;100.00;100099.34;5044367;28;20182;-75
2022/10/20 11:02:46;;;;;;;14.10;12.40;;;;;;;13.75;100.00;100094.00;5048563;28;20212;-77
2022/10/20 11:05:39;;;;;;;14.77;12.87;;;;;;;13.88;100.00;100097.41;5044201;28;20188;-81
2022/10/20 11:08:23;;;;;;;14.17;12.67;;;;;;;14.12;100.00;100100.06;5052790;28;20650;-61
2022/10/20 11:11:05;;;;;;;14.87;13.30;;;;;;;14.30;100.00;100112.63;5049609;28;20236;-75
2022/10/20 11:13:42;;;;;;;14.10;12.60;;;;;;;14.06;100.00;100105.66;5068068;28;20196;-75
2022/10/20 11:16:14;;;;;;;22.83;12.40;;;;;;;13.95;100.00;100102.97;5062206;28;20293;-76
2022/10/20 11:19:21;;;;;;;14.53;12.10;;;;;;;13.95;100.00;100108.97;5067959;28;20181;-76
2022/10/20 11:22:05;;;;;;;16.27;13.33;;;;;;;14.11;100.00;100113.09;5072042;28;20284;-79
2022/10/20 11:24:46;;;;;;;14.13;11.80;;;;;;;14.27;100.00;100110.28;5074762;28;20197;-75